createdAt,value
2022-09-14T00:01:36.345Z,17.16
2022-09-14T00:04:16.754Z,17.10
2022-09-14T00:06:45.041Z,17.06
2022-09-14T00:09:22.320Z,17.08
2022-09-14T00:11:51.375Z,17.06
2022-09-14T00:14:19.937Z,17.06
2022-09-14T00:16:48.228Z,17.09
2022-09-14T00:19:22.014Z,17.07
2022-09-14T00:21:53.085Z,17.11
2022-09-14T00:24:21.224Z,17.04
2022-09-14T00:26:49.616Z,16.97
2022-09-14T00:29:17.775Z,16.90
2022-09-14T00:31:45.746Z,16.84
2022-09-14T00:34:15.400Z,16.79
2022-09-14T00:36:48.247Z,16.77
2022-09-14T00:39:18.577Z,16.78
2022-09-14T00:41:48.130Z,16.79
2022-09-14T00:44:15.779Z,16.83
2022-09-14T00:46:46.121Z,16.83
2022-09-14T00:49:18.869Z,16.84
2022-09-14T00:51:53.198Z,16.81
2022-09-14T00:54:21.308Z,16.79
2022-09-14T00:56:49.836Z,16.80
2022-09-14T00:59:27.491Z,16.78
2022-09-14T01:01:55.754Z,16.74
2022-09-14T01:04:24.345Z,16.73
2022-09-14T01:07:01.134Z,16.71
2022-09-14T01:09:46.754Z,16.72
2022-09-14T01:12:23.265Z,16.72
2022-09-14T01:15:24.091Z,16.74
2022-09-14T01:18:16.498Z,16.79
2022-09-14T01:21:23.000Z,16.85
2022-09-14T01:24:17.657Z,16.78
2022-09-14T01:26:59.272Z,16.80
2022-09-14T01:29:32.342Z,16.78
2022-09-14T01:32:14.771Z,16.85
2022-09-14T01:35:19.113Z,16.88
2022-09-14T01:38:08.645Z,16.82
2022-09-14T01:40:47.423Z,16.81
2022-09-14T01:43:20.273Z,16.82
2022-09-14T01:46:04.825Z,16.86
2022-09-14T01:49:17.350Z,16.85
2022-09-14T01:51:52.126Z,16.83
2022-09-14T01:54:32.527Z,16.81
2022-09-14T01:57:08.782Z,16.78
2022-09-14T01:59:41.780Z,16.76
2022-09-14T02:02:39.769Z,16.76
2022-09-14T02:05:18.555Z,16.75
2022-09-14T02:07:46.402Z,16.76
2022-09-14T02:10:17.263Z,16.78
2022-09-14T02:12:45.964Z,16.78
2022-09-14T02:15:15.504Z,16.79
2022-09-14T02:17:44.208Z,16.80
2022-09-14T02:20:21.879Z,16.84
2022-09-14T02:22:51.732Z,16.82
2022-09-14T02:25:20.925Z,16.87
2022-09-14T02:27:48.730Z,16.87
2022-09-14T02:30:17.590Z,16.89
2022-09-14T02:32:45.431Z,16.89
2022-09-14T02:35:25.482Z,16.89
2022-09-14T02:38:05.057Z,16.89
2022-09-14T02:40:38.082Z,16.88
2022-09-14T02:43:23.767Z,16.89
2022-09-14T02:46:09.819Z,16.90
2022-09-14T02:49:05.583Z,16.92
2022-09-14T02:51:56.156Z,16.93
2022-09-14T02:54:35.269Z,16.98
2022-09-14T02:57:04.117Z,16.97
2022-09-14T02:59:31.957Z,17.00
2022-09-14T03:02:01.373Z,17.08
2022-09-14T03:04:29.069Z,17.07
2022-09-14T03:06:57.003Z,17.05
2022-09-14T03:09:24.723Z,17.09
2022-09-14T03:11:52.473Z,17.12
2022-09-14T03:14:21.088Z,17.14
2022-09-14T03:16:48.737Z,17.13
2022-09-14T03:19:16.445Z,17.14
2022-09-14T03:21:44.561Z,17.19
2022-09-14T03:24:12.141Z,17.21
2022-09-14T03:26:39.963Z,17.20
2022-09-14T03:29:07.672Z,17.14
2022-09-14T03:31:35.439Z,17.13
2022-09-14T03:34:03.281Z,17.08
2022-09-14T03:36:31.656Z,17.09
2022-09-14T03:39:01.842Z,17.07
2022-09-14T03:41:30.058Z,17.08
2022-09-14T03:43:57.790Z,17.05
2022-09-14T03:46:26.260Z,17.03
2022-09-14T03:48:54.994Z,17.03
2022-09-14T03:51:22.834Z,17.01
2022-09-14T03:53:50.637Z,16.99
2022-09-14T03:56:20.609Z,17.00
2022-09-14T03:58:49.232Z,17.00
2022-09-14T04:01:20.678Z,17.02
2022-09-14T04:03:49.344Z,17.02
2022-09-14T04:06:19.748Z,17.02
2022-09-14T04:08:48.167Z,17.00
2022-09-14T04:11:22.135Z,17.00
2022-09-14T04:13:50.905Z,16.96
2022-09-14T04:16:21.136Z,16.98
2022-09-14T04:18:49.657Z,16.99
2022-09-14T04:21:21.218Z,16.99
2022-09-14T04:26:40.358Z,17.00
2022-09-14T04:29:09.227Z,17.03
2022-09-14T04:31:37.174Z,17.04
2022-09-14T04:34:05.022Z,17.07
2022-09-14T04:36:33.220Z,17.09
2022-09-14T04:39:03.720Z,17.12
2022-09-14T04:41:32.567Z,17.13
2022-09-14T04:44:00.943Z,17.21
2022-09-14T04:46:32.446Z,17.26
2022-09-14T04:49:01.082Z,17.30
2022-09-14T04:51:30.898Z,17.37
2022-09-14T04:53:59.726Z,17.37
2022-09-14T04:56:28.882Z,17.40
2022-09-14T04:58:59.116Z,17.42
2022-09-14T05:01:29.205Z,17.45
2022-09-14T05:03:57.442Z,17.45
2022-09-14T05:06:29.552Z,17.50
2022-09-14T05:08:59.250Z,17.52
2022-09-14T05:11:30.631Z,17.60
2022-09-14T05:13:59.670Z,17.67
2022-09-14T05:16:33.509Z,17.72
2022-09-14T05:19:04.147Z,17.76
2022-09-14T05:21:35.783Z,17.80
2022-09-14T05:24:08.554Z,17.86
2022-09-14T05:26:36.645Z,17.91
2022-09-14T05:29:04.572Z,17.96
2022-09-14T05:31:33.097Z,18.02
2022-09-14T05:34:01.156Z,18.05
2022-09-14T05:36:28.816Z,18.06
2022-09-14T05:38:58.234Z,18.13
2022-09-14T05:41:25.930Z,18.14
2022-09-14T05:43:53.656Z,18.17
2022-09-14T05:46:21.605Z,18.22
2022-09-14T05:48:51.855Z,18.36
2022-09-14T05:51:22.477Z,18.51
2022-09-14T05:53:52.056Z,18.57
2022-09-14T05:56:21.457Z,18.62
2022-09-14T05:58:49.957Z,18.69
2022-09-14T06:01:24.376Z,18.74
2022-09-14T06:03:56.985Z,18.77
2022-09-14T06:06:24.958Z,18.77
2022-09-14T06:08:55.345Z,18.89
2022-09-14T06:11:26.537Z,18.99
2022-09-14T06:13:55.215Z,18.95
2022-09-14T06:16:24.717Z,18.88
2022-09-14T06:18:53.892Z,18.85
2022-09-14T06:21:22.760Z,18.76
2022-09-14T06:23:51.335Z,18.65
2022-09-14T06:26:19.243Z,18.61
2022-09-14T06:28:47.037Z,18.54
2022-09-14T06:31:15.711Z,18.52
2022-09-14T06:33:47.972Z,18.52
2022-09-14T06:36:19.745Z,18.53
2022-09-14T06:38:51.716Z,18.36
2022-09-14T06:41:22.133Z,18.33
2022-09-14T06:43:50.647Z,18.38
2022-09-14T06:46:28.004Z,18.44
2022-09-14T06:49:02.350Z,18.42
2022-09-14T06:51:32.866Z,18.36
2022-09-14T06:54:01.945Z,18.30
2022-09-14T06:56:33.143Z,18.38
2022-09-14T06:59:00.868Z,18.33
2022-09-14T07:01:30.173Z,18.32
2022-09-14T07:04:00.384Z,18.38
2022-09-14T07:06:31.424Z,18.45
2022-09-14T07:08:59.603Z,18.50
2022-09-14T07:11:29.549Z,18.54
2022-09-14T07:14:00.256Z,18.56
2022-09-14T07:16:30.203Z,18.69
2022-09-14T07:19:02.068Z,18.73
2022-09-14T07:21:31.281Z,18.86
2022-09-14T07:24:03.245Z,19.05
2022-09-14T07:26:44.631Z,19.13
2022-09-14T07:29:17.265Z,19.04
2022-09-14T07:31:50.641Z,19.14
2022-09-14T07:34:19.333Z,19.24
2022-09-14T07:36:46.966Z,19.34
2022-09-14T07:39:17.301Z,19.61
2022-09-14T07:41:45.436Z,19.81
2022-09-14T07:44:39.667Z,20.07
2022-09-14T07:47:07.450Z,20.14
2022-09-14T07:49:35.016Z,20.32
2022-09-14T07:52:02.975Z,20.52
2022-09-14T07:54:31.124Z,20.74
2022-09-14T07:56:58.815Z,20.66
2022-09-14T07:59:41.543Z,20.76
2022-09-14T08:02:11.289Z,20.77
2022-09-14T08:04:39.523Z,20.77
2022-09-14T08:07:08.067Z,20.75
2022-09-14T08:09:35.687Z,20.80
2022-09-14T08:12:04.548Z,20.82
2022-09-14T08:14:32.271Z,20.95
2022-09-14T08:17:01.066Z,21.03
2022-09-14T08:19:29.123Z,21.05
2022-09-14T08:21:56.805Z,21.13
2022-09-14T08:24:24.564Z,21.13
2022-09-14T08:26:54.068Z,21.27
2022-09-14T08:29:21.637Z,21.23
2022-09-14T08:31:51.801Z,21.33
2022-09-14T08:34:20.209Z,21.36
2022-09-14T08:36:48.378Z,21.34
2022-09-14T08:39:17.698Z,21.61
2022-09-14T08:41:51.729Z,21.73
2022-09-14T08:44:54.333Z,21.76
2022-09-14T08:47:34.500Z,21.81
2022-09-14T08:50:22.180Z,21.78
2022-09-14T08:52:53.655Z,21.79
2022-09-14T08:55:34.049Z,21.90
2022-09-14T08:58:14.875Z,21.88
2022-09-14T09:01:08.925Z,21.79
2022-09-14T09:04:14.143Z,21.81
2022-09-14T09:07:20.267Z,22.25
2022-09-14T09:09:54.304Z,22.48
2022-09-14T09:12:38.054Z,22.90
2022-09-14T09:15:42.520Z,23.16
2022-09-14T09:18:37.426Z,23.08
2022-09-14T09:21:28.945Z,22.78
2022-09-14T09:24:17.803Z,22.39
2022-09-14T09:26:46.222Z,22.26
2022-09-14T09:29:14.485Z,22.08
2022-09-14T09:32:00.981Z,21.89
2022-09-14T09:34:47.016Z,21.97
2022-09-14T09:37:26.518Z,22.10
2022-09-14T09:39:54.856Z,22.10
2022-09-14T09:42:24.944Z,22.22
2022-09-14T09:45:02.595Z,22.18
2022-09-14T09:47:39.343Z,22.09
2022-09-14T09:50:17.903Z,22.14
2022-09-14T09:52:55.211Z,22.23
2022-09-14T09:55:26.596Z,22.25
2022-09-14T09:57:54.745Z,22.18
2022-09-14T10:00:22.583Z,22.06
2022-09-14T10:02:52.038Z,21.96
2022-09-14T10:05:34.431Z,22.08
2022-09-14T10:08:10.717Z,21.85
2022-09-14T10:10:44.130Z,21.52
2022-09-14T10:13:37.803Z,21.20
2022-09-14T10:16:17.035Z,20.77
2022-09-14T10:18:49.265Z,20.68
2022-09-14T10:21:19.662Z,20.66
2022-09-14T10:24:01.840Z,20.74
2022-09-14T10:26:34.343Z,20.91
2022-09-14T10:29:35.223Z,20.96
2022-09-14T10:32:12.823Z,21.19
2022-09-14T10:34:40.492Z,21.52
2022-09-14T10:37:20.544Z,21.85
2022-09-14T10:40:21.004Z,22.20
2022-09-14T10:43:12.417Z,22.50
2022-09-14T10:45:45.677Z,22.68
2022-09-14T10:48:26.866Z,22.48
2022-09-14T10:50:57.457Z,22.21
2022-09-14T10:53:45.380Z,22.00
2022-09-14T10:56:18.868Z,22.09
2022-09-14T10:59:10.493Z,22.38
2022-09-14T11:02:06.745Z,22.51
2022-09-14T11:04:47.288Z,22.53
2022-09-14T11:07:46.982Z,22.47
2022-09-14T11:10:43.004Z,22.44
2022-09-14T11:13:38.855Z,22.52
2022-09-14T11:16:12.826Z,22.52
2022-09-14T11:18:56.226Z,22.51
2022-09-14T11:21:36.168Z,22.63
2022-09-14T11:24:13.816Z,22.47
2022-09-14T11:26:55.253Z,22.32
2022-09-14T11:29:35.078Z,22.51
2022-09-14T11:32:23.787Z,22.56
2022-09-14T11:35:09.877Z,22.39
2022-09-14T11:37:43.114Z,22.25
2022-09-14T11:40:29.096Z,22.40
2022-09-14T11:43:53.237Z,22.48
2022-09-14T11:46:50.864Z,22.30
2022-09-14T11:49:45.636Z,22.25
2022-09-14T11:52:18.106Z,22.23
2022-09-14T11:54:46.982Z,22.17
2022-09-14T11:57:26.108Z,22.21
2022-09-14T12:00:24.037Z,22.29
2022-09-14T12:03:14.760Z,22.37
2022-09-14T12:05:46.516Z,22.31
2022-09-14T12:08:35.328Z,22.30
2022-09-14T12:11:24.500Z,22.16
2022-09-14T12:14:19.870Z,22.10
2022-09-14T12:17:28.920Z,22.04
2022-09-14T12:20:20.714Z,21.91
2022-09-14T12:22:50.433Z,21.85
2022-09-14T12:25:25.557Z,21.76
2022-09-14T12:27:53.987Z,21.81
2022-09-14T12:30:40.598Z,22.10
2022-09-14T12:33:34.576Z,22.29
2022-09-14T12:36:12.608Z,22.41
2022-09-14T12:39:21.578Z,22.50
2022-09-14T12:41:49.379Z,22.51
2022-09-14T12:44:34.811Z,22.49
2022-09-14T12:47:30.369Z,22.54
2022-09-14T12:50:23.034Z,22.59
2022-09-14T12:53:13.309Z,22.59
2022-09-14T12:55:55.717Z,22.58
2022-09-14T12:58:51.153Z,22.58
2022-09-14T13:01:59.962Z,22.60
2022-09-14T13:04:35.095Z,22.65
2022-09-14T13:07:06.216Z,22.79
2022-09-14T13:09:35.180Z,22.90
2022-09-14T13:12:06.176Z,22.98
2022-09-14T13:14:55.978Z,23.06
2022-09-14T13:17:24.404Z,23.05
2022-09-14T13:20:00.244Z,22.99
2022-09-14T13:22:32.051Z,23.10
2022-09-14T13:25:04.649Z,23.20
2022-09-14T13:27:35.543Z,23.28
2022-09-14T13:30:12.064Z,23.30
2022-09-14T13:32:43.835Z,23.31
2022-09-14T13:35:20.436Z,23.30
2022-09-14T13:37:49.672Z,23.23
2022-09-14T13:40:22.559Z,23.16
2022-09-14T13:42:50.928Z,23.17
2022-09-14T13:45:18.861Z,23.17
2022-09-14T13:47:47.028Z,23.19
2022-09-14T13:50:16.276Z,23.18
2022-09-14T13:53:01.287Z,23.03
2022-09-14T13:55:33.192Z,22.79
2022-09-14T13:58:09.632Z,22.69
2022-09-14T14:01:02.343Z,22.71
2022-09-14T14:03:42.513Z,22.71
2022-09-14T14:06:38.136Z,22.65
2022-09-14T14:09:08.285Z,22.60
2022-09-14T14:11:42.882Z,22.71
2022-09-14T14:14:19.499Z,22.76
2022-09-14T14:17:24.628Z,22.73
2022-09-14T14:19:54.838Z,22.64
2022-09-14T14:22:33.016Z,22.63
2022-09-14T14:25:16.534Z,22.55
2022-09-14T14:27:47.311Z,22.43
2022-09-14T14:30:23.323Z,22.43
2022-09-14T14:32:53.366Z,22.34
2022-09-14T14:35:27.596Z,22.35
2022-09-14T14:37:55.919Z,22.38
2022-09-14T14:40:25.488Z,22.39
2022-09-14T14:42:54.485Z,22.48
2022-09-14T14:45:26.741Z,22.57
2022-09-14T14:47:55.865Z,22.59
2022-09-14T14:50:29.474Z,22.59
2022-09-14T14:52:57.597Z,22.51
2022-09-14T14:55:28.163Z,22.46
2022-09-14T14:58:00.937Z,22.46
2022-09-14T15:00:32.269Z,22.43
2022-09-14T15:03:00.347Z,22.34
2022-09-14T15:05:28.258Z,22.29
2022-09-14T15:07:56.336Z,22.13
2022-09-14T15:10:26.570Z,22.09
2022-09-14T15:12:55.375Z,22.09
2022-09-14T15:15:25.544Z,22.12
2022-09-14T15:17:53.981Z,22.06
2022-09-14T15:20:22.330Z,22.03
2022-09-14T15:22:51.858Z,22.00
2022-09-14T15:25:21.111Z,21.99
2022-09-14T15:27:49.564Z,21.99
2022-09-14T15:30:17.406Z,21.92
2022-09-14T15:32:45.198Z,21.86
2022-09-14T15:35:14.980Z,21.80
2022-09-14T15:37:42.778Z,21.78
2022-09-14T15:40:12.006Z,21.79
2022-09-14T15:42:39.988Z,21.73
2022-09-14T15:45:07.850Z,21.68
2022-09-14T15:47:36.800Z,21.59
2022-09-14T15:50:06.336Z,21.53
2022-09-14T15:52:38.333Z,21.47
2022-09-14T15:55:08.751Z,21.38
2022-09-14T15:57:37.732Z,21.28
2022-09-14T16:00:08.737Z,21.24
2022-09-14T16:02:43.876Z,21.16
2022-09-14T16:05:13.138Z,21.05
2022-09-14T16:07:40.906Z,20.95
2022-09-14T16:10:09.312Z,20.94
2022-09-14T16:12:36.980Z,20.95
2022-09-14T16:15:05.207Z,20.87
2022-09-14T16:17:34.452Z,20.85
2022-09-14T16:20:04.402Z,20.82
2022-09-14T16:22:33.227Z,20.82
2022-09-14T16:25:02.315Z,20.81
2022-09-14T16:27:30.546Z,20.78
2022-09-14T16:30:02.017Z,20.76
2022-09-14T16:32:31.156Z,20.72
2022-09-14T16:34:58.979Z,20.66
2022-09-14T16:37:27.448Z,20.54
2022-09-14T16:39:55.332Z,20.50
2022-09-14T16:42:23.326Z,20.47
2022-09-14T16:44:50.887Z,20.41
2022-09-14T16:47:18.648Z,20.39
2022-09-14T16:49:46.242Z,20.36
2022-09-14T16:52:14.218Z,20.28
2022-09-14T16:54:44.023Z,20.17
2022-09-14T16:57:11.878Z,20.07
2022-09-14T16:59:40.256Z,20.03
2022-09-14T17:02:11.983Z,20.00
2022-09-14T17:04:40.118Z,19.95
2022-09-14T17:07:08.046Z,19.91
2022-09-14T17:09:35.826Z,19.86
2022-09-14T17:12:03.707Z,19.80
2022-09-14T17:14:33.259Z,19.78
2022-09-14T17:17:00.996Z,19.76
2022-09-14T17:19:29.193Z,19.71
2022-09-14T17:22:22.546Z,19.68
2022-09-14T17:27:46.496Z,19.60
2022-09-14T17:30:14.551Z,19.58
2022-09-14T17:32:55.497Z,19.52
2022-09-14T17:35:29.182Z,19.49
2022-09-14T17:38:20.082Z,19.49
2022-09-14T17:41:22.248Z,19.45
2022-09-14T17:44:03.416Z,19.42
2022-09-14T17:46:31.762Z,19.41
2022-09-14T17:49:00.725Z,19.42
2022-09-14T17:51:39.825Z,19.40
2022-09-14T17:54:17.983Z,19.38
2022-09-14T17:56:51.710Z,19.35
2022-09-14T17:59:23.990Z,19.32
2022-09-14T18:01:59.957Z,19.30
2022-09-14T18:04:36.578Z,19.26
2022-09-14T18:07:25.411Z,19.21
2022-09-14T18:10:08.240Z,19.19
2022-09-14T18:12:54.477Z,19.16
2022-09-14T18:15:31.477Z,19.10
2022-09-14T18:18:06.334Z,19.08
2022-09-14T18:20:47.509Z,19.06
2022-09-14T18:23:20.439Z,19.01
2022-09-14T18:25:55.315Z,18.99
2022-09-14T18:28:27.508Z,18.94
2022-09-14T18:31:07.234Z,18.90
2022-09-14T18:33:39.119Z,18.88
2022-09-14T18:36:15.806Z,18.86
2022-09-14T18:38:46.192Z,18.84
2022-09-14T18:41:21.544Z,18.82
2022-09-14T18:43:54.912Z,18.80
2022-09-14T18:46:29.641Z,18.80
2022-09-14T18:49:03.616Z,18.80
2022-09-14T18:51:51.649Z,18.81
2022-09-14T18:54:38.653Z,18.81
2022-09-14T18:57:16.511Z,18.80
2022-09-14T18:59:49.778Z,18.79
2022-09-14T19:02:25.662Z,18.80
2022-09-14T19:05:03.992Z,18.81
2022-09-14T19:07:43.908Z,18.80
2022-09-14T19:10:25.735Z,18.80
2022-09-14T19:13:20.030Z,18.77
2022-09-14T19:15:59.489Z,18.77
2022-09-14T19:18:29.729Z,18.75
2022-09-14T19:21:13.854Z,18.75
2022-09-14T19:24:08.135Z,18.72
2022-09-14T19:26:45.234Z,18.67
2022-09-14T19:29:22.482Z,18.65
2022-09-14T19:32:15.622Z,18.63
2022-09-14T19:37:56.205Z,18.52
2022-09-14T19:40:25.154Z,18.51
2022-09-14T19:42:52.882Z,18.48
2022-09-14T19:45:20.657Z,18.47
2022-09-14T19:47:49.406Z,18.46
2022-09-14T19:50:24.746Z,18.49
2022-09-14T19:52:53.604Z,18.48
2022-09-14T19:55:23.008Z,18.47
2022-09-14T19:57:50.952Z,18.47
2022-09-14T20:00:19.844Z,18.49
2022-09-14T20:02:47.600Z,18.47
2022-09-14T20:05:22.757Z,18.49
2022-09-14T20:07:51.068Z,18.45
2022-09-14T20:10:20.836Z,18.43
2022-09-14T20:12:49.015Z,18.42
2022-09-14T20:15:17.661Z,18.37
2022-09-14T20:17:45.840Z,18.32
2022-09-14T20:20:16.159Z,18.32
2022-09-14T20:22:44.127Z,18.29
2022-09-14T20:25:11.965Z,18.27
2022-09-14T20:27:39.786Z,18.27
2022-09-14T20:30:08.826Z,18.26
2022-09-14T20:32:36.623Z,18.26
2022-09-14T20:35:04.562Z,18.26
2022-09-14T20:37:32.686Z,18.27
2022-09-14T20:40:00.408Z,18.28
2022-09-14T20:42:29.577Z,18.28
2022-09-14T20:44:58.037Z,18.28
2022-09-14T20:47:25.882Z,18.24
2022-09-14T20:49:53.595Z,18.22
2022-09-14T20:52:21.442Z,18.19
2022-09-14T20:54:49.115Z,18.19
2022-09-14T20:57:16.979Z,18.18
2022-09-14T20:59:44.684Z,18.18
2022-09-14T21:02:12.446Z,18.18
2022-09-14T21:04:40.322Z,18.18
2022-09-14T21:07:08.043Z,18.15
2022-09-14T21:09:35.753Z,18.13
2022-09-14T21:12:03.644Z,18.13
2022-09-14T21:14:31.329Z,18.13
2022-09-14T21:16:59.223Z,18.15
2022-09-14T21:19:28.563Z,18.15
2022-09-14T21:21:56.582Z,18.12
2022-09-14T21:24:24.469Z,18.10
2022-09-14T21:26:52.497Z,18.09
2022-09-14T21:29:24.176Z,18.10
2022-09-14T21:31:53.087Z,18.08
2022-09-14T21:34:21.058Z,18.07
2022-09-14T21:36:51.515Z,18.06
2022-09-14T21:39:23.547Z,18.05
2022-09-14T21:41:59.088Z,18.05
2022-09-14T21:44:33.859Z,18.05
2022-09-14T21:47:02.674Z,18.05
2022-09-14T21:49:30.577Z,18.05
2022-09-14T21:51:58.560Z,18.07
2022-09-14T21:54:27.217Z,18.04
2022-09-14T21:56:55.287Z,18.03
2022-09-14T21:59:24.017Z,18.03
2022-09-14T22:01:52.094Z,18.01
2022-09-14T22:04:22.751Z,18.02
2022-09-14T22:06:51.954Z,18.01
2022-09-14T22:09:23.207Z,18.04
2022-09-14T22:11:51.052Z,18.04
2022-09-14T22:14:21.203Z,18.08
2022-09-14T22:17:32.999Z,18.08
2022-09-14T22:20:19.916Z,18.06
2022-09-14T22:23:05.643Z,18.05
2022-09-14T22:25:33.970Z,18.04
2022-09-14T22:28:01.920Z,18.05
2022-09-14T22:30:29.771Z,18.05
2022-09-14T22:32:57.389Z,18.07
2022-09-14T22:35:24.968Z,18.08
2022-09-14T22:37:52.591Z,18.09
2022-09-14T22:40:20.393Z,18.08
2022-09-14T22:42:48.105Z,18.04
2022-09-14T22:45:15.990Z,18.06
2022-09-14T22:47:45.978Z,18.07
2022-09-14T22:50:14.758Z,18.05
2022-09-14T22:52:42.586Z,18.04
2022-09-14T22:55:10.472Z,18.04
2022-09-14T22:57:38.191Z,18.03
2022-09-14T23:00:10.033Z,18.06
2022-09-14T23:02:37.785Z,18.08
2022-09-14T23:05:06.470Z,18.08
2022-09-14T23:07:34.337Z,18.09
2022-09-14T23:10:02.311Z,18.09
2022-09-14T23:12:29.984Z,18.09
2022-09-14T23:14:57.626Z,18.07
2022-09-14T23:17:25.362Z,18.07
2022-09-14T23:19:52.970Z,18.07
2022-09-14T23:22:20.778Z,18.05
2022-09-14T23:24:54.680Z,18.04
2022-09-14T23:27:22.419Z,17.98
2022-09-14T23:29:50.021Z,17.91
2022-09-14T23:32:17.942Z,17.88
2022-09-14T23:34:47.374Z,17.84
2022-09-14T23:37:15.773Z,17.82
2022-09-14T23:39:46.610Z,17.78
2022-09-14T23:42:14.367Z,17.76
2022-09-14T23:44:42.082Z,17.70
2022-09-14T23:47:09.922Z,17.67
2022-09-14T23:49:37.681Z,17.63
2022-09-14T23:52:05.459Z,17.60
2022-09-14T23:54:39.249Z,17.60
2022-09-14T23:57:07.041Z,17.59
2022-09-14T23:59:34.687Z,17.59
